createdAt,value
2017-05-06T00:00:02.789Z,930.36
2017-05-06T00:00:15.429Z,930.39
2017-05-06T00:00:28.065Z,930.38
2017-05-06T00:00:41.198Z,930.36
2017-05-06T00:00:54.320Z,930.38
2017-05-06T00:01:07.491Z,930.37
2017-05-06T00:01:20.657Z,930.36
2017-05-06T00:01:33.805Z,930.41
2017-05-06T00:01:46.944Z,930.42
2017-05-06T00:02:00.079Z,930.41
2017-05-06T00:02:13.181Z,930.45
2017-05-06T00:02:25.803Z,930.43
2017-05-06T00:02:38.403Z,930.47
2017-05-06T00:02:51.508Z,930.45
2017-05-06T00:03:04.149Z,930.44
2017-05-06T00:03:17.294Z,930.46
2017-05-06T00:03:30.374Z,930.49
2017-05-06T00:03:43.529Z,930.46
2017-05-06T00:03:56.147Z,930.5
2017-05-06T00:04:09.288Z,930.47
2017-05-06T00:04:21.958Z,930.49
2017-05-06T00:04:35.045Z,930.48
2017-05-06T00:04:48.193Z,930.45
2017-05-06T00:05:01.364Z,930.47
2017-05-06T00:05:13.993Z,930.42
2017-05-06T00:05:26.695Z,930.42
2017-05-06T00:05:39.782Z,930.4
2017-05-06T00:05:52.937Z,930.41
2017-05-06T00:06:05.600Z,930.36
2017-05-06T00:06:18.488Z,930.4
2017-05-06T00:06:31.156Z,930.41
2017-05-06T00:06:43.742Z,930.42
2017-05-06T00:06:56.402Z,930.41
2017-05-06T00:07:08.534Z,930.41
2017-05-06T00:07:21.605Z,930.4
2017-05-06T00:07:34.709Z,930.38
2017-05-06T00:07:47.882Z,930.4
2017-05-06T00:08:01.705Z,930.38
2017-05-06T00:08:14.896Z,930.39
2017-05-06T00:08:27.044Z,930.39
2017-05-06T00:08:39.624Z,930.37
2017-05-06T00:08:52.779Z,930.37
2017-05-06T00:09:05.906Z,930.37
2017-05-06T00:09:18.541Z,930.39
2017-05-06T00:09:31.231Z,930.38
2017-05-06T00:09:44.592Z,930.37
2017-05-06T00:09:57.643Z,930.38
2017-05-06T00:10:10.249Z,930.39
2017-05-06T00:10:22.853Z,930.43
2017-05-06T00:10:35.955Z,930.41
2017-05-06T00:10:49.068Z,930.43
2017-05-06T00:11:02.132Z,930.44
2017-05-06T00:11:15.273Z,930.45
2017-05-06T00:11:28.404Z,930.46
2017-05-06T00:11:41.556Z,930.49
2017-05-06T00:11:54.736Z,930.47
2017-05-06T00:12:07.883Z,930.5
2017-05-06T00:12:21.002Z,930.48
2017-05-06T00:12:33.629Z,930.48
2017-05-06T00:12:46.810Z,930.49
2017-05-06T00:12:59.874Z,930.47
2017-05-06T00:13:12.567Z,930.53
2017-05-06T00:13:25.244Z,930.49
2017-05-06T00:13:38.360Z,930.5
2017-05-06T00:13:51.013Z,930.48
2017-05-06T00:14:04.151Z,930.47
2017-05-06T00:14:17.293Z,930.51
2017-05-06T00:14:29.921Z,930.5
2017-05-06T00:14:42.544Z,930.52
2017-05-06T00:14:55.696Z,930.51
2017-05-06T00:15:08.352Z,930.5
2017-05-06T00:15:22.875Z,930.52
2017-05-06T00:15:36.016Z,930.51
2017-05-06T00:15:49.234Z,930.54
2017-05-06T00:16:02.379Z,930.51
2017-05-06T00:16:15.025Z,930.53
2017-05-06T00:16:27.661Z,930.52
2017-05-06T00:16:40.754Z,930.52
2017-05-06T00:16:53.869Z,930.52
2017-05-06T00:17:07.053Z,930.53
2017-05-06T00:17:20.225Z,930.5
2017-05-06T00:17:33.387Z,930.5
2017-05-06T00:17:45.529Z,930.49
2017-05-06T00:17:58.629Z,930.45
2017-05-06T00:18:11.734Z,930.48
2017-05-06T00:18:24.845Z,930.47
2017-05-06T00:18:37.973Z,930.51
2017-05-06T00:18:51.144Z,930.47
2017-05-06T00:19:04.247Z,930.43
2017-05-06T00:19:15.894Z,930.42
2017-05-06T00:19:29.068Z,930.42
2017-05-06T00:19:42.195Z,930.4
2017-05-06T00:19:55.382Z,930.39
2017-05-06T00:20:08.545Z,930.4
2017-05-06T00:20:21.667Z,930.39
2017-05-06T00:20:34.829Z,930.37
2017-05-06T00:20:48.034Z,930.32
2017-05-06T00:21:01.149Z,930.33
2017-05-06T00:21:14.248Z,930.34
2017-05-06T00:21:26.876Z,930.34
2017-05-06T00:21:40.014Z,930.28
2017-05-06T00:21:53.142Z,930.31
2017-05-06T00:22:06.286Z,930.28
2017-05-06T00:22:19.384Z,930.28
2017-05-06T00:22:32.001Z,930.26
2017-05-06T00:22:45.154Z,930.28
2017-05-06T00:22:58.476Z,930.28
2017-05-06T00:23:11.577Z,930.28
2017-05-06T00:23:24.680Z,930.3
2017-05-06T00:23:37.829Z,930.29
2017-05-06T00:23:50.969Z,930.32
2017-05-06T00:24:04.120Z,930.32
2017-05-06T00:24:17.320Z,930.3
2017-05-06T00:24:30.430Z,930.3
2017-05-06T00:24:42.768Z,930.3
2017-05-06T00:24:55.856Z,930.26
2017-05-06T00:25:08.491Z,930.25
2017-05-06T00:25:21.620Z,930.28
2017-05-06T00:25:34.804Z,930.25
2017-05-06T00:25:47.397Z,930.25
2017-05-06T00:26:00.486Z,930.23
2017-05-06T00:26:13.672Z,930.24
2017-05-06T00:26:26.789Z,930.24
2017-05-06T00:26:39.868Z,930.23
2017-05-06T00:26:53.601Z,930.24
2017-05-06T00:27:06.775Z,930.22
2017-05-06T00:27:19.412Z,930.21
2017-05-06T00:27:32.004Z,930.19
2017-05-06T00:27:45.181Z,930.22
2017-05-06T00:27:58.373Z,930.19
2017-05-06T00:28:11.537Z,930.2
2017-05-06T00:28:24.632Z,930.16
2017-05-06T00:28:37.759Z,930.17
2017-05-06T00:28:50.857Z,930.17
2017-05-06T00:29:03.421Z,930.14
2017-05-06T00:29:15.999Z,930.09
2017-05-06T00:29:28.141Z,930.08
2017-05-06T00:29:41.265Z,930.11
2017-05-06T00:29:54.428Z,930.08
2017-05-06T00:30:07.533Z,930.08
2017-05-06T00:30:20.210Z,930.09
2017-05-06T00:30:33.352Z,930.06
2017-05-06T00:30:46.214Z,930.04
2017-05-06T00:30:59.344Z,930.06
2017-05-06T00:31:11.935Z,930.04
2017-05-06T00:31:25.677Z,930.02
2017-05-06T00:31:38.786Z,930
2017-05-06T00:31:51.901Z,930.02
2017-05-06T00:32:04.107Z,930
2017-05-06T00:32:17.253Z,929.96
2017-05-06T00:32:30.381Z,929.96
2017-05-06T00:32:43.047Z,929.91
2017-05-06T00:32:56.210Z,929.91
2017-05-06T00:33:08.839Z,929.9
2017-05-06T00:33:21.003Z,929.9
2017-05-06T00:33:34.125Z,929.87
2017-05-06T00:33:47.348Z,929.83
2017-05-06T00:34:00.429Z,929.85
2017-05-06T00:34:13.528Z,929.82
2017-05-06T00:34:26.128Z,929.83
2017-05-06T00:34:39.298Z,929.8
2017-05-06T00:34:52.450Z,929.81
2017-05-06T00:35:05.572Z,929.79
2017-05-06T00:35:18.718Z,929.78
2017-05-06T00:35:30.799Z,929.78
2017-05-06T00:35:43.977Z,929.73
2017-05-06T00:35:57.098Z,929.72
2017-05-06T00:36:10.285Z,929.74
2017-05-06T00:36:23.405Z,929.73
2017-05-06T00:36:35.498Z,929.76
2017-05-06T00:36:48.683Z,929.76
2017-05-06T00:37:01.826Z,929.74
2017-05-06T00:37:15.006Z,929.73
2017-05-06T00:37:28.181Z,929.71
2017-05-06T00:37:41.325Z,929.72
2017-05-06T00:37:54.419Z,929.7
2017-05-06T00:38:07.522Z,929.66
2017-05-06T00:38:20.167Z,929.66
2017-05-06T00:38:33.298Z,929.65
2017-05-06T00:38:45.415Z,929.65
2017-05-06T00:38:58.532Z,929.62
2017-05-06T00:39:11.197Z,929.58
2017-05-06T00:39:24.397Z,929.57
2017-05-06T00:39:37.044Z,929.56
2017-05-06T00:39:50.397Z,929.58
2017-05-06T00:40:03.470Z,929.56
2017-05-06T00:40:16.577Z,929.55
2017-05-06T00:40:28.743Z,929.52
2017-05-06T00:40:41.962Z,929.54
2017-05-06T00:40:55.162Z,929.49
2017-05-06T00:41:07.819Z,929.5
2017-05-06T00:41:20.926Z,929.48
2017-05-06T00:41:34.024Z,929.44
2017-05-06T00:41:46.598Z,929.45
2017-05-06T00:41:59.784Z,929.45
2017-05-06T00:42:12.485Z,929.43
2017-05-06T00:42:25.078Z,929.46
2017-05-06T00:42:38.209Z,929.41
2017-05-06T00:42:52.037Z,929.44
2017-05-06T00:43:05.175Z,929.44
2017-05-06T00:43:18.317Z,929.43
2017-05-06T00:43:31.441Z,929.43
2017-05-06T00:43:44.575Z,929.41
2017-05-06T00:43:57.736Z,929.41
2017-05-06T00:44:10.894Z,929.4
2017-05-06T00:44:23.996Z,929.4
2017-05-06T00:44:37.225Z,929.38
2017-05-06T00:44:50.328Z,929.4
2017-05-06T00:45:03.442Z,929.37
2017-05-06T00:45:16.086Z,929.38
2017-05-06T00:45:29.240Z,929.42
2017-05-06T00:45:42.323Z,929.4
2017-05-06T00:45:55.469Z,929.39
2017-05-06T00:46:08.062Z,929.4
2017-05-06T00:46:20.874Z,929.37
2017-05-06T00:46:33.610Z,929.39
2017-05-06T00:46:46.804Z,929.35
2017-05-06T00:46:59.761Z,929.34
2017-05-06T00:47:12.392Z,929.34
2017-05-06T00:47:24.556Z,929.34
2017-05-06T00:47:37.714Z,929.37
2017-05-06T00:47:50.814Z,929.3
2017-05-06T00:48:03.488Z,929.35
2017-05-06T00:48:16.193Z,929.35
2017-05-06T00:48:29.345Z,929.37
2017-05-06T00:48:42.013Z,929.39
2017-05-06T00:48:55.190Z,929.33
2017-05-06T00:49:08.242Z,929.4
2017-05-06T00:49:21.367Z,929.43
2017-05-06T00:49:34.502Z,929.39
2017-05-06T00:49:47.603Z,929.43
2017-05-06T00:50:00.774Z,929.45
2017-05-06T00:50:13.391Z,929.42
2017-05-06T00:50:25.995Z,929.47
2017-05-06T00:50:40.803Z,929.5
2017-05-06T00:50:54.023Z,929.45
2017-05-06T00:51:06.678Z,929.46
2017-05-06T00:51:20.071Z,929.47
2017-05-06T00:51:33.264Z,929.51
2017-05-06T00:51:46.446Z,929.48
2017-05-06T00:51:59.943Z,929.5
2017-05-06T00:52:13.152Z,929.55
2017-05-06T00:52:26.353Z,929.55
2017-05-06T00:52:39.483Z,929.56
2017-05-06T00:52:52.131Z,929.58
2017-05-06T00:53:05.289Z,929.62
2017-05-06T00:53:17.939Z,929.59
2017-05-06T00:53:31.116Z,929.61
2017-05-06T00:53:44.276Z,929.64
2017-05-06T00:53:56.914Z,929.68
2017-05-06T00:54:09.047Z,929.69
2017-05-06T00:54:21.708Z,929.69
2017-05-06T00:54:34.372Z,929.64
2017-05-06T00:54:47.559Z,929.73
2017-05-06T00:55:00.964Z,929.72
2017-05-06T00:55:13.623Z,929.68
2017-05-06T00:55:26.257Z,929.75
2017-05-06T00:55:38.931Z,929.76
2017-05-06T00:55:52.151Z,929.8
2017-05-06T00:56:05.244Z,929.76
2017-05-06T00:56:18.346Z,929.81
2017-05-06T00:56:31.509Z,929.79
2017-05-06T00:56:44.798Z,929.8
2017-05-06T00:56:57.984Z,929.79
2017-05-06T00:57:11.103Z,929.82
2017-05-06T00:57:24.236Z,929.85
2017-05-06T00:57:37.389Z,929.82
2017-05-06T00:57:50.540Z,929.84
2017-05-06T00:58:05.608Z,929.82
2017-05-06T00:58:18.776Z,929.85
2017-05-06T00:58:31.422Z,929.83
2017-05-06T00:58:44.544Z,929.85
2017-05-06T00:58:57.678Z,929.82
2017-05-06T00:59:11.051Z,929.84
2017-05-06T00:59:23.740Z,929.82
2017-05-06T00:59:36.864Z,929.81
2017-05-06T00:59:50.055Z,929.8
2017-05-06T01:00:02.755Z,929.78
2017-05-06T01:00:15.966Z,929.81
2017-05-06T01:00:29.129Z,929.8
2017-05-06T01:00:41.788Z,929.8
2017-05-06T01:00:54.972Z,929.78
2017-05-06T01:01:08.217Z,929.81
2017-05-06T01:01:21.356Z,929.78
2017-05-06T01:01:34.504Z,929.8
2017-05-06T01:01:48.387Z,929.8
2017-05-06T01:02:01.513Z,929.81
2017-05-06T01:02:15.620Z,929.79
2017-05-06T01:02:28.779Z,929.79
2017-05-06T01:02:41.457Z,929.83
2017-05-06T01:02:54.534Z,929.83
2017-05-06T01:03:08.283Z,929.86
2017-05-06T01:03:20.956Z,929.87
2017-05-06T01:03:34.093Z,929.91
2017-05-06T01:04:06.034Z,929.92
2017-05-06T01:04:19.066Z,929.93
2017-05-06T01:04:31.835Z,929.96
2017-05-06T01:04:45.110Z,929.94
2017-05-06T01:04:59.498Z,929.97
2017-05-06T01:05:12.685Z,929.97
2017-05-06T01:05:26.205Z,929.98
2017-05-06T01:05:39.359Z,930
2017-05-06T01:05:52.746Z,929.98
2017-05-06T01:06:07.116Z,929.97
2017-05-06T01:06:20.977Z,929.99
2017-05-06T01:06:36.154Z,930.04
2017-05-06T01:06:50.528Z,930.02
2017-05-06T01:07:15.230Z,930.03
2017-05-06T01:07:29.236Z,930.05
2017-05-06T01:07:42.703Z,930.04
2017-05-06T01:07:58.581Z,930.06
2017-05-06T01:08:11.807Z,930.05
2017-05-06T01:08:26.014Z,930.07
2017-05-06T01:09:05.549Z,930.04
2017-05-06T01:09:29.541Z,930.08
2017-05-06T01:09:43.178Z,930.1
2017-05-06T01:09:57.943Z,930.1
2017-05-06T01:10:17.965Z,930.14
2017-05-06T01:10:31.160Z,930.13
2017-05-06T01:11:06.497Z,930.15
2017-05-06T01:11:26.034Z,930.15
2017-05-06T01:11:38.678Z,930.11
2017-05-06T01:11:51.807Z,930.11
2017-05-06T01:12:05.733Z,930.09
2017-05-06T01:12:19.036Z,930.14
2017-05-06T01:12:31.660Z,930.11
2017-05-06T01:12:43.852Z,930.13
2017-05-06T01:12:57.032Z,930.17
2017-05-06T01:13:10.194Z,930.15
2017-05-06T01:13:23.548Z,930.15
2017-05-06T01:13:36.643Z,930.16
2017-05-06T01:13:50.473Z,930.13
2017-05-06T01:14:04.254Z,930.19
2017-05-06T01:14:16.377Z,930.18
2017-05-06T01:14:29.539Z,930.17
2017-05-06T01:14:42.651Z,930.14
2017-05-06T01:14:55.828Z,930.15
2017-05-06T01:15:09.369Z,930.14
2017-05-06T01:15:22.592Z,930.13
2017-05-06T01:15:35.190Z,930.14
2017-05-06T01:15:48.406Z,930.12
2017-05-06T01:16:01.595Z,930.13
2017-05-06T01:16:13.747Z,930.13
2017-05-06T01:16:26.450Z,930.14
2017-05-06T01:16:39.604Z,930.12
2017-05-06T01:16:52.906Z,930.11
2017-05-06T01:17:13.861Z,930.14
2017-05-06T01:17:27.026Z,930.11
2017-05-06T01:17:40.195Z,930.12
2017-05-06T01:17:59.159Z,930.1
2017-05-06T01:18:16.913Z,930.13
2017-05-06T01:18:30.109Z,930.13
2017-05-06T01:18:47.565Z,930.1
2017-05-06T01:19:06.642Z,930.12
2017-05-06T01:19:19.307Z,930.15
2017-05-06T01:19:37.603Z,930.1
2017-05-06T01:19:50.942Z,930.12
2017-05-06T01:20:03.612Z,930.09
2017-05-06T01:20:18.837Z,930.1
2017-05-06T01:20:36.832Z,930.11
2017-05-06T01:20:50.242Z,930.04
2017-05-06T01:21:03.307Z,930.1
2017-05-06T01:21:14.516Z,930.09
2017-05-06T01:21:27.648Z,930.07
2017-05-06T01:21:40.777Z,930.04
2017-05-06T01:21:53.889Z,930.06
2017-05-06T01:22:06.610Z,930.08
2017-05-06T01:22:19.714Z,930.06
2017-05-06T01:22:32.357Z,930.05
2017-05-06T01:22:46.180Z,930.09
2017-05-06T01:22:58.860Z,930.03
2017-05-06T01:23:12.036Z,930.05
2017-05-06T01:23:25.627Z,930.05
2017-05-06T01:23:38.801Z,930.07
2017-05-06T01:23:52.016Z,930.09
2017-05-06T01:24:05.200Z,930.06
2017-05-06T01:24:19.058Z,930.02
2017-05-06T01:24:32.246Z,930.08
2017-05-06T01:24:45.370Z,930.05
2017-05-06T01:24:58.498Z,930.07
2017-05-06T01:25:11.294Z,930.07
2017-05-06T01:25:24.424Z,930.05
2017-05-06T01:25:37.614Z,930.05
2017-05-06T01:25:50.773Z,930.08
2017-05-06T01:26:03.866Z,930.06
2017-05-06T01:26:16.963Z,930.07
2017-05-06T01:26:30.065Z,930.04
2017-05-06T01:26:43.200Z,930.07
2017-05-06T01:26:56.344Z,930.04
2017-05-06T01:27:09.504Z,930.07
2017-05-06T01:27:22.167Z,930.03
2017-05-06T01:27:35.378Z,930.06
2017-05-06T01:27:48.538Z,930.06
2017-05-06T01:28:01.683Z,930.03
2017-05-06T01:28:14.804Z,930.07
2017-05-06T01:28:28.063Z,930.08
2017-05-06T01:28:40.722Z,930.06
2017-05-06T01:28:53.885Z,930.06
2017-05-06T01:29:07.023Z,930.05
2017-05-06T01:29:21.507Z,930.04
2017-05-06T01:29:34.778Z,930.08
2017-05-06T01:29:47.925Z,930.08
2017-05-06T01:30:01.772Z,930.07
2017-05-06T01:30:14.413Z,930.08
2017-05-06T01:30:27.539Z,930.06
2017-05-06T01:30:42.089Z,930.09
2017-05-06T01:30:55.255Z,930.06
2017-05-06T01:31:08.419Z,930.06
2017-05-06T01:31:21.672Z,930.05
2017-05-06T01:31:34.844Z,930.07
2017-05-06T01:31:47.917Z,930.07
2017-05-06T01:32:01.072Z,930.06
2017-05-06T01:32:14.229Z,930.06
2017-05-06T01:32:26.844Z,930.06
2017-05-06T01:32:40.059Z,930.11
2017-05-06T01:32:53.252Z,930.09
2017-05-06T01:33:06.386Z,930.08
2017-05-06T01:33:19.600Z,930.07
2017-05-06T01:33:32.301Z,930.08
2017-05-06T01:33:44.981Z,930.05
2017-05-06T01:33:58.199Z,930.03
2017-05-06T01:34:11.338Z,930.07
2017-05-06T01:34:24.499Z,930.06
2017-05-06T01:34:37.626Z,930.02
2017-05-06T01:34:50.827Z,930
2017-05-06T01:35:03.570Z,929.98
2017-05-06T01:35:16.191Z,930
2017-05-06T01:35:29.255Z,929.99
2017-05-06T01:35:42.353Z,929.97
2017-05-06T01:35:54.995Z,929.99
2017-05-06T01:36:08.127Z,929.98
2017-05-06T01:36:21.262Z,929.99
2017-05-06T01:36:34.338Z,929.97
2017-05-06T01:36:47.440Z,930.01
2017-05-06T01:37:00.553Z,930
2017-05-06T01:37:13.628Z,930
2017-05-06T01:37:25.771Z,929.98
2017-05-06T01:37:38.937Z,930
2017-05-06T01:37:52.031Z,929.96
2017-05-06T01:38:05.175Z,930.01
2017-05-06T01:38:17.324Z,930
2017-05-06T01:38:30.436Z,930.01
2017-05-06T01:38:43.552Z,929.99
2017-05-06T01:38:56.617Z,930
2017-05-06T01:39:09.776Z,930.03
2017-05-06T01:39:22.921Z,930.03
2017-05-06T01:39:35.608Z,930.02
2017-05-06T01:39:48.760Z,930.02
2017-05-06T01:40:01.895Z,930.04
2017-05-06T01:40:15.585Z,930.04
2017-05-06T01:40:28.756Z,930.02
2017-05-06T01:40:41.903Z,930
2017-05-06T01:40:55.048Z,930.02
2017-05-06T01:41:08.147Z,930.02
2017-05-06T01:41:20.314Z,930.02
2017-05-06T01:41:33.539Z,930.03
2017-05-06T01:41:46.681Z,930.01
2017-05-06T01:41:58.856Z,930.01
2017-05-06T01:42:11.512Z,930
2017-05-06T01:42:24.623Z,930.03
2017-05-06T01:42:37.761Z,930
2017-05-06T01:42:50.900Z,930
2017-05-06T01:43:04.046Z,930.03
2017-05-06T01:43:17.254Z,930.02
2017-05-06T01:43:30.399Z,929.97
2017-05-06T01:43:43.084Z,930
2017-05-06T01:43:56.174Z,929.99
2017-05-06T01:44:08.791Z,929.99
2017-05-06T01:44:22.650Z,929.99
2017-05-06T01:44:35.307Z,929.97
2017-05-06T01:44:47.942Z,930
2017-05-06T01:45:01.084Z,929.99
2017-05-06T01:45:13.704Z,929.97
2017-05-06T01:45:26.824Z,929.98
2017-05-06T01:45:39.942Z,929.94
2017-05-06T01:45:52.621Z,929.92
2017-05-06T01:46:05.303Z,929.94
2017-05-06T01:46:17.952Z,929.89
2017-05-06T01:46:31.064Z,929.9
2017-05-06T01:46:44.223Z,929.9
2017-05-06T01:46:57.366Z,929.9
2017-05-06T01:47:10.561Z,929.88
2017-05-06T01:47:23.250Z,929.88
2017-05-06T01:47:35.898Z,929.87
2017-05-06T01:47:48.955Z,929.87
2017-05-06T01:48:02.120Z,929.83
2017-05-06T01:48:14.262Z,929.84
2017-05-06T01:48:26.892Z,929.78
2017-05-06T01:48:40.102Z,929.78
2017-05-06T01:48:53.251Z,929.82
2017-05-06T01:49:06.395Z,929.82
2017-05-06T01:49:19.536Z,929.76
2017-05-06T01:49:32.922Z,929.75
2017-05-06T01:49:46.085Z,929.73
2017-05-06T01:49:59.292Z,929.72
2017-05-06T01:50:11.967Z,929.74
2017-05-06T01:50:24.596Z,929.75
2017-05-06T01:50:38.015Z,929.71
2017-05-06T01:50:51.120Z,929.71
2017-05-06T01:51:04.248Z,929.69
2017-05-06T01:51:17.381Z,929.69
2017-05-06T01:51:30.477Z,929.68
2017-05-06T01:51:43.610Z,929.68
2017-05-06T01:51:56.719Z,929.7
2017-05-06T01:52:09.901Z,929.67
2017-05-06T01:52:22.565Z,929.66
2017-05-06T01:52:35.687Z,929.65
2017-05-06T01:52:48.897Z,929.67
2017-05-06T01:53:01.532Z,929.67
2017-05-06T01:53:16.809Z,929.65
2017-05-06T01:53:29.905Z,929.7
2017-05-06T01:53:43.050Z,929.68
2017-05-06T01:53:56.272Z,929.68
2017-05-06T01:54:09.400Z,929.65
2017-05-06T01:54:22.547Z,929.67
2017-05-06T01:54:35.662Z,929.65
2017-05-06T01:54:50.930Z,929.63
2017-05-06T01:55:03.547Z,929.67
2017-05-06T01:55:17.023Z,929.66
2017-05-06T01:55:30.231Z,929.66
2017-05-06T01:55:43.360Z,929.67
2017-05-06T01:55:56.438Z,929.62
2017-05-06T01:56:09.605Z,929.65
2017-05-06T01:56:22.782Z,929.63
2017-05-06T01:56:36.000Z,929.62
2017-05-06T01:56:49.164Z,929.66
2017-05-06T01:57:02.273Z,929.66
2017-05-06T01:57:15.422Z,929.6
2017-05-06T01:57:28.614Z,929.63
2017-05-06T01:57:41.228Z,929.62
2017-05-06T01:57:53.936Z,929.63
2017-05-06T01:58:07.128Z,929.63
2017-05-06T01:58:19.293Z,929.6
2017-05-06T01:58:32.455Z,929.6
2017-05-06T01:58:45.611Z,929.61
2017-05-06T01:58:58.790Z,929.6
2017-05-06T01:59:11.918Z,929.61
2017-05-06T01:59:24.621Z,929.59
2017-05-06T01:59:37.737Z,929.59
2017-05-06T01:59:50.866Z,929.59
2017-05-06T02:00:04.025Z,929.6
2017-05-06T02:00:17.171Z,929.61
2017-05-06T02:00:30.294Z,929.62
2017-05-06T02:00:43.438Z,929.57
2017-05-06T02:00:56.045Z,929.63
2017-05-06T02:01:08.665Z,929.61
2017-05-06T02:01:21.284Z,929.59
2017-05-06T02:01:34.433Z,929.62
2017-05-06T02:01:47.649Z,929.62
2017-05-06T02:02:00.839Z,929.63
2017-05-06T02:02:13.480Z,929.59
2017-05-06T02:02:26.655Z,929.62
2017-05-06T02:02:39.744Z,929.59
2017-05-06T02:02:52.881Z,929.6
2017-05-06T02:03:05.961Z,929.57
2017-05-06T02:03:18.602Z,929.59
2017-05-06T02:03:31.759Z,929.57
2017-05-06T02:03:44.906Z,929.56
2017-05-06T02:03:58.038Z,929.55
2017-05-06T02:04:11.238Z,929.59
2017-05-06T02:04:24.377Z,929.57
2017-05-06T02:04:37.500Z,929.59
2017-05-06T02:04:50.622Z,929.59
2017-05-06T02:05:03.226Z,929.6
2017-05-06T02:05:16.558Z,929.58
2017-05-06T02:05:29.752Z,929.59
2017-05-06T02:05:42.890Z,929.58
2017-05-06T02:05:56.023Z,929.58
2017-05-06T02:06:08.669Z,929.62
2017-05-06T02:06:21.787Z,929.61
2017-05-06T02:06:34.884Z,929.61
2017-05-06T02:06:47.521Z,929.61
2017-05-06T02:07:00.630Z,929.61
2017-05-06T02:07:12.729Z,929.61
2017-05-06T02:07:25.379Z,929.61
2017-05-06T02:07:38.530Z,929.62
2017-05-06T02:07:51.691Z,929.65
2017-05-06T02:08:04.841Z,929.63
2017-05-06T02:08:17.523Z,929.63
2017-05-06T02:08:30.749Z,929.64
2017-05-06T02:08:43.868Z,929.66
2017-05-06T02:08:57.051Z,929.64
2017-05-06T02:09:10.170Z,929.67
2017-05-06T02:09:23.379Z,929.62
2017-05-06T02:09:36.542Z,929.66
2017-05-06T02:09:49.465Z,929.64
2017-05-06T02:10:06.334Z,929.65
2017-05-06T02:10:18.731Z,929.63
2017-05-06T02:10:31.430Z,929.62
2017-05-06T02:10:44.627Z,929.64
2017-05-06T02:10:58.093Z,929.61
2017-05-06T02:11:11.235Z,929.63
2017-05-06T02:11:24.412Z,929.62
2017-05-06T02:11:37.629Z,929.65
2017-05-06T02:11:50.773Z,929.65
2017-05-06T02:12:03.898Z,929.68
2017-05-06T02:12:16.044Z,929.67
2017-05-06T02:12:29.217Z,929.69
2017-05-06T02:12:42.375Z,929.67
2017-05-06T02:12:55.519Z,929.69
2017-05-06T02:13:08.738Z,929.73
2017-05-06T02:13:21.365Z,929.72
2017-05-06T02:13:34.513Z,929.72
2017-05-06T02:13:47.646Z,929.72
2017-05-06T02:14:00.319Z,929.75
2017-05-06T02:14:12.458Z,929.72
2017-05-06T02:14:25.556Z,929.76
2017-05-06T02:14:38.727Z,929.75
2017-05-06T02:14:51.831Z,929.77
2017-05-06T02:15:05.028Z,929.76
2017-05-06T02:15:19.538Z,929.78
2017-05-06T02:15:32.695Z,929.8
2017-05-06T02:15:45.787Z,929.8
2017-05-06T02:15:58.943Z,929.81
2017-05-06T02:16:12.134Z,929.83
2017-05-06T02:16:25.278Z,929.85
2017-05-06T02:16:37.877Z,929.82
2017-05-06T02:16:50.584Z,929.86
2017-05-06T02:17:03.803Z,929.83
2017-05-06T02:17:16.457Z,929.87
2017-05-06T02:17:29.609Z,929.87
2017-05-06T02:17:42.774Z,929.83
2017-05-06T02:17:55.440Z,929.86
2017-05-06T02:18:08.671Z,929.84
2017-05-06T02:18:22.509Z,929.86
2017-05-06T02:18:35.737Z,929.86
2017-05-06T02:18:49.130Z,929.87
2017-05-06T02:19:02.324Z,929.86
2017-05-06T02:19:15.486Z,929.86
2017-05-06T02:19:28.628Z,929.86
2017-05-06T02:19:41.753Z,929.83
2017-05-06T02:19:54.849Z,929.88
2017-05-06T02:20:08.038Z,929.86
2017-05-06T02:20:21.005Z,929.83
2017-05-06T02:20:34.455Z,929.88
2017-05-06T02:20:47.060Z,929.89
2017-05-06T02:21:00.204Z,929.86
2017-05-06T02:21:13.349Z,929.86
2017-05-06T02:21:26.479Z,929.87
2017-05-06T02:21:39.658Z,929.86
2017-05-06T02:21:52.332Z,929.86
2017-05-06T02:22:05.504Z,929.84
2017-05-06T02:22:18.680Z,929.82
2017-05-06T02:22:31.785Z,929.85
2017-05-06T02:22:44.975Z,929.83
2017-05-06T02:22:58.125Z,929.82
2017-05-06T02:23:11.249Z,929.83
2017-05-06T02:23:24.424Z,929.82
2017-05-06T02:23:37.628Z,929.81
2017-05-06T02:23:50.775Z,929.8
2017-05-06T02:24:03.954Z,929.8
2017-05-06T02:24:17.100Z,929.8
2017-05-06T02:24:30.290Z,929.8
2017-05-06T02:24:43.446Z,929.82
2017-05-06T02:24:56.107Z,929.84
2017-05-06T02:25:08.777Z,929.83
2017-05-06T02:25:21.881Z,929.84
2017-05-06T02:25:35.741Z,929.82
2017-05-06T02:25:48.868Z,929.83
2017-05-06T02:26:01.557Z,929.81
2017-05-06T02:26:14.202Z,929.82
2017-05-06T02:26:27.302Z,929.83
2017-05-06T02:26:40.495Z,929.82
2017-05-06T02:26:53.642Z,929.82
2017-05-06T02:27:06.823Z,929.82
2017-05-06T02:27:20.008Z,929.86
2017-05-06T02:27:33.195Z,929.81
2017-05-06T02:27:46.350Z,929.82
2017-05-06T02:27:59.556Z,929.81
2017-05-06T02:28:11.653Z,929.79
2017-05-06T02:28:24.335Z,929.8
2017-05-06T02:28:37.486Z,929.77
2017-05-06T02:28:50.669Z,929.78
2017-05-06T02:29:03.785Z,929.78
2017-05-06T02:29:16.966Z,929.76
2017-05-06T02:29:30.739Z,929.73
2017-05-06T02:29:43.400Z,929.75
2017-05-06T02:29:56.622Z,929.76
2017-05-06T02:30:09.825Z,929.75
2017-05-06T02:30:22.958Z,929.72
2017-05-06T02:30:36.194Z,929.69
2017-05-06T02:30:49.399Z,929.76
2017-05-06T02:31:02.296Z,929.76
2017-05-06T02:31:15.006Z,929.75
2017-05-06T02:31:28.241Z,929.72
2017-05-06T02:31:41.420Z,929.74
2017-05-06T02:31:54.629Z,929.73
2017-05-06T02:32:07.211Z,929.72
2017-05-06T02:32:19.930Z,929.75
2017-05-06T02:32:32.613Z,929.72
2017-05-06T02:32:46.083Z,929.73
2017-05-06T02:32:59.271Z,929.73
2017-05-06T02:33:12.393Z,929.69
2017-05-06T02:33:25.588Z,929.69
2017-05-06T02:33:38.745Z,929.71
2017-05-06T02:33:51.962Z,929.69
2017-05-06T02:34:05.085Z,929.67
2017-05-06T02:34:18.324Z,929.7
2017-05-06T02:34:31.756Z,929.68
2017-05-06T02:34:44.936Z,929.66
2017-05-06T02:34:58.356Z,929.65
2017-05-06T02:35:10.987Z,929.66
2017-05-06T02:35:23.088Z,929.67
2017-05-06T02:35:35.864Z,929.66
2017-05-06T02:35:49.044Z,929.67
2017-05-06T02:36:02.229Z,929.66
2017-05-06T02:36:13.861Z,929.66
2017-05-06T02:36:27.036Z,929.65
2017-05-06T02:36:40.174Z,929.65
2017-05-06T02:36:52.824Z,929.64
2017-05-06T02:37:05.471Z,929.61
2017-05-06T02:37:18.787Z,929.63
2017-05-06T02:37:31.928Z,929.61
2017-05-06T02:37:45.129Z,929.63
2017-05-06T02:37:57.755Z,929.59
2017-05-06T02:38:10.407Z,929.58
2017-05-06T02:38:23.067Z,929.61
2017-05-06T02:38:35.767Z,929.6
2017-05-06T02:38:48.475Z,929.58
2017-05-06T02:39:01.632Z,929.57
2017-05-06T02:39:14.222Z,929.56
2017-05-06T02:39:26.872Z,929.54
2017-05-06T02:39:39.970Z,929.54
2017-05-06T02:39:52.639Z,929.53
2017-05-06T02:40:05.303Z,929.55
2017-05-06T02:40:18.014Z,929.53
2017-05-06T02:40:31.561Z,929.5
2017-05-06T02:40:44.222Z,929.5
2017-05-06T02:40:57.421Z,929.52
2017-05-06T02:41:10.253Z,929.51
2017-05-06T02:41:22.979Z,929.52
2017-05-06T02:41:38.303Z,929.51
2017-05-06T02:41:51.448Z,929.52
2017-05-06T02:42:04.108Z,929.51
2017-05-06T02:42:19.550Z,929.5
2017-05-06T02:42:32.693Z,929.5
2017-05-06T02:42:45.787Z,929.5
2017-05-06T02:42:59.178Z,929.51
2017-05-06T02:43:12.346Z,929.48
2017-05-06T02:43:25.010Z,929.53
2017-05-06T02:43:38.194Z,929.48
2017-05-06T02:43:51.383Z,929.46
2017-05-06T02:44:04.085Z,929.5
2017-05-06T02:44:16.754Z,929.49
2017-05-06T02:44:29.396Z,929.45
2017-05-06T02:44:42.740Z,929.5
2017-05-06T02:44:55.905Z,929.47
2017-05-06T02:45:09.076Z,929.47
2017-05-06T02:45:21.721Z,929.48
2017-05-06T02:45:34.843Z,929.48
2017-05-06T02:45:48.048Z,929.48
2017-05-06T02:46:01.171Z,929.46
2017-05-06T02:46:13.318Z,929.48